createdAt,value
2024-03-12T00:03:13.241Z,17.20
2024-03-12T00:08:15.482Z,17.00
2024-03-12T00:13:17.415Z,16.37
2024-03-12T00:18:27.075Z,15.13
2024-03-12T00:23:30.198Z,14.90
2024-03-12T00:28:34.460Z,13.93
2024-03-12T00:33:36.455Z,15.13
2024-03-12T00:38:38.470Z,14.80
2024-03-12T00:43:41.067Z,14.77
2024-03-12T00:48:48.269Z,15.10
2024-03-12T00:53:50.288Z,14.67
2024-03-12T00:58:53.250Z,14.60
2024-03-12T01:03:57.524Z,15.00
2024-03-12T01:09:07.536Z,13.80
2024-03-12T01:14:09.612Z,13.57
2024-03-12T01:19:13.927Z,13.90
2024-03-12T01:24:18.020Z,13.10
2024-03-12T01:29:20.802Z,15.20
2024-03-12T01:34:24.730Z,17.50
2024-03-12T01:39:27.258Z,17.63
2024-03-12T01:44:31.382Z,20.23
2024-03-12T01:49:35.286Z,21.57
2024-03-12T01:54:38.518Z,22.70
2024-03-12T01:59:40.659Z,23.73
2024-03-12T02:04:42.700Z,22.17
2024-03-12T02:09:50.438Z,21.80
2024-03-12T02:14:52.787Z,21.97
2024-03-12T02:19:54.560Z,20.57
2024-03-12T02:24:56.482Z,20.90
2024-03-12T02:29:58.501Z,21.43
2024-03-12T02:35:00.394Z,19.83
2024-03-12T02:40:02.251Z,18.67
2024-03-12T02:45:07.409Z,17.87
2024-03-12T02:50:14.697Z,17.13
2024-03-12T02:55:16.585Z,17.33
2024-03-12T03:00:20.876Z,16.13
2024-03-12T03:05:22.748Z,16.77
2024-03-12T03:10:26.900Z,16.57
2024-03-12T03:15:28.750Z,16.23
2024-03-12T03:20:30.598Z,17.43
2024-03-12T03:25:32.342Z,18.70
2024-03-12T03:30:36.683Z,17.80
2024-03-12T03:35:41.627Z,80.00
2024-03-12T03:40:43.337Z,26.77
2024-03-12T03:45:47.306Z,20.60
2024-03-12T03:50:49.082Z,21.00
2024-03-12T03:55:55.526Z,23.20
2024-03-12T04:00:57.531Z,23.50
2024-03-12T04:05:59.329Z,22.50
2024-03-12T04:11:04.602Z,28.60
2024-03-12T04:16:26.755Z,27.07
2024-03-12T04:21:53.226Z,24.90
2024-03-12T04:27:17.431Z,27.00
2024-03-12T04:32:40.723Z,26.43
2024-03-12T04:37:42.717Z,27.20
2024-03-12T04:42:47.039Z,27.63
2024-03-12T04:47:50.217Z,29.40
2024-03-12T04:52:52.152Z,30.30
2024-03-12T04:57:54.007Z,28.90
2024-03-12T05:02:55.928Z,28.53
2024-03-12T05:08:00.177Z,30.10
2024-03-12T05:13:04.777Z,29.57
2024-03-12T05:18:06.996Z,28.90
2024-03-12T05:23:11.624Z,29.57
2024-03-12T05:28:13.871Z,27.60
2024-03-12T05:33:21.017Z,27.40
2024-03-12T05:38:31.783Z,28.37
2024-03-12T05:43:52.196Z,28.07
2024-03-12T05:48:56.316Z,28.43
2024-03-12T05:54:00.448Z,29.83
2024-03-12T05:59:02.255Z,28.50
2024-03-12T06:04:06.829Z,30.83
2024-03-12T06:09:11.262Z,30.73
2024-03-12T06:14:15.345Z,31.53
2024-03-12T06:19:20.555Z,32.77
2024-03-12T06:24:22.432Z,31.87
2024-03-12T06:29:24.672Z,33.47
2024-03-12T06:34:29.815Z,32.77
2024-03-12T06:39:37.467Z,33.33
2024-03-12T06:44:43.845Z,35.97
2024-03-12T06:49:47.894Z,36.00
2024-03-12T06:54:51.683Z,36.43
2024-03-12T06:59:56.578Z,36.47
2024-03-12T07:05:04.469Z,36.43
2024-03-12T07:10:12.763Z,32.87
2024-03-12T07:15:19.455Z,32.47
2024-03-12T07:20:23.079Z,30.50
2024-03-12T07:25:27.410Z,29.07
2024-03-12T07:30:29.240Z,29.23
2024-03-12T07:35:35.565Z,30.30
2024-03-12T07:40:42.457Z,27.23
2024-03-12T07:45:49.238Z,28.40
2024-03-12T07:50:51.040Z,29.27
2024-03-12T07:55:57.812Z,28.53
2024-03-12T08:01:02.557Z,27.60
2024-03-12T08:06:05.287Z,28.33
2024-03-12T08:11:07.248Z,27.93
2024-03-12T08:16:09.180Z,28.33
2024-03-12T08:21:11.071Z,28.87
2024-03-12T08:26:13.493Z,29.00
2024-03-12T08:31:23.729Z,29.30
2024-03-12T08:36:38.088Z,29.63
2024-03-12T08:41:43.555Z,30.13
2024-03-12T08:46:46.190Z,31.03
2024-03-12T08:51:47.984Z,30.80
2024-03-12T08:56:54.783Z,30.17
2024-03-12T09:02:01.216Z,29.87
2024-03-12T09:07:03.766Z,31.17
2024-03-12T09:12:09.407Z,30.07
2024-03-12T09:17:11.199Z,29.53
2024-03-12T09:22:15.271Z,31.30
2024-03-12T09:27:20.773Z,30.17
2024-03-12T09:32:23.005Z,28.07
2024-03-12T09:37:28.581Z,29.10
2024-03-12T09:42:37.217Z,30.33
2024-03-12T09:47:42.058Z,30.17
2024-03-12T09:52:47.485Z,29.83
2024-03-12T09:57:52.606Z,25.47
2024-03-12T10:02:56.452Z,30.83
2024-03-12T10:08:18.027Z,29.30
2024-03-12T10:13:22.326Z,29.30
2024-03-12T10:18:40.164Z,31.90
2024-03-12T10:23:42.332Z,32.70
2024-03-12T10:28:52.238Z,31.20
2024-03-12T10:33:57.511Z,30.05
2024-03-12T10:38:59.439Z,31.13
2024-03-12T10:44:13.917Z,31.33
2024-03-12T10:49:18.834Z,33.20
2024-03-12T10:54:23.871Z,32.47
2024-03-12T10:59:29.059Z,32.63
2024-03-12T11:04:33.993Z,31.52
2024-03-12T11:09:38.312Z,30.65
2024-03-12T11:14:43.181Z,30.85
2024-03-12T11:19:45.608Z,32.20
2024-03-12T11:24:49.909Z,30.55
2024-03-12T11:30:05.429Z,34.70
2024-03-12T11:35:28.710Z,35.47
2024-03-12T11:40:41.225Z,36.17
2024-03-12T11:45:54.242Z,38.50
2024-03-12T11:50:57.176Z,38.92
2024-03-12T11:56:09.080Z,31.90
2024-03-12T12:01:22.852Z,38.07
2024-03-12T12:06:25.605Z,41.53
2024-03-12T12:11:27.534Z,37.13
2024-03-12T12:16:36.511Z,43.63
2024-03-12T12:21:39.696Z,44.37
2024-03-12T12:26:44.994Z,44.43
2024-03-12T12:31:47.150Z,44.83
2024-03-12T12:36:54.357Z,49.93
2024-03-12T12:41:58.217Z,48.63
2024-03-12T12:46:59.913Z,51.37
2024-03-12T12:52:04.988Z,51.87
2024-03-12T12:57:10.179Z,50.83
2024-03-12T13:02:19.838Z,49.78
2024-03-12T13:07:33.297Z,51.33
2024-03-12T13:12:36.124Z,50.87
2024-03-12T13:17:40.735Z,43.77
2024-03-12T13:22:43.741Z,50.00
2024-03-12T13:27:48.350Z,49.90
2024-03-12T13:32:50.314Z,45.47
2024-03-12T13:37:52.108Z,47.93
2024-03-12T13:42:54.026Z,42.90
2024-03-12T13:47:56.427Z,46.30
2024-03-12T13:53:00.963Z,44.10
2024-03-12T13:58:04.421Z,35.77
2024-03-12T14:03:06.218Z,40.13
2024-03-12T14:08:08.049Z,38.90
2024-03-12T14:13:11.348Z,36.67
2024-03-12T14:18:13.277Z,33.70
2024-03-12T14:23:15.546Z,32.27
2024-03-12T14:28:20.934Z,30.30
2024-03-12T14:33:27.309Z,32.03
2024-03-12T14:38:31.087Z,30.60
2024-03-12T14:43:34.177Z,28.77
2024-03-12T14:48:39.095Z,26.97
2024-03-12T14:53:45.393Z,25.67
2024-03-12T14:58:49.417Z,26.20
2024-03-12T15:03:51.905Z,21.77
2024-03-12T15:08:56.942Z,16.47
2024-03-12T15:13:58.716Z,15.20
2024-03-12T15:19:05.169Z,14.63
2024-03-12T15:24:08.200Z,15.87
2024-03-12T15:29:13.873Z,16.80
2024-03-12T15:34:15.824Z,15.10
2024-03-12T15:39:18.929Z,16.13
2024-03-12T15:44:23.060Z,15.10
2024-03-12T15:49:25.226Z,16.30
2024-03-12T15:54:29.611Z,19.13
2024-03-12T15:59:33.686Z,23.10
2024-03-12T16:04:35.484Z,22.33
2024-03-12T16:09:37.398Z,19.60
2024-03-12T16:14:41.741Z,24.17
2024-03-12T16:19:43.464Z,20.67
2024-03-12T16:24:47.535Z,18.80
2024-03-12T16:29:49.586Z,19.77
2024-03-12T16:34:51.408Z,19.67
2024-03-12T16:39:55.702Z,22.88
2024-03-12T16:45:00.516Z,22.07
2024-03-12T16:50:05.964Z,22.33
2024-03-12T16:55:09.032Z,20.97
2024-03-12T17:00:15.081Z,23.87
2024-03-12T17:05:23.524Z,26.53
2024-03-12T17:10:26.623Z,25.60
2024-03-12T17:15:28.963Z,24.80
2024-03-12T17:20:34.467Z,26.95
2024-03-12T17:25:39.686Z,24.87
2024-03-12T17:30:42.690Z,22.70
2024-03-12T17:35:48.814Z,20.63
2024-03-12T17:40:55.712Z,20.90
2024-03-12T17:45:58.604Z,22.43
2024-03-12T17:51:04.184Z,20.93
2024-03-12T17:56:12.842Z,24.20
2024-03-12T18:01:14.899Z,27.50
2024-03-12T18:06:16.869Z,20.97
2024-03-12T18:11:22.062Z,20.67
2024-03-12T18:16:26.362Z,21.37
2024-03-12T18:21:28.725Z,21.90
2024-03-12T18:26:35.814Z,23.53
2024-03-12T18:31:39.951Z,23.97
2024-03-12T18:36:41.794Z,24.43
2024-03-12T18:41:44.648Z,25.73
2024-03-12T18:46:46.616Z,27.57
2024-03-12T18:51:48.788Z,27.13
2024-03-12T18:56:51.056Z,30.07
2024-03-12T19:02:07.320Z,29.30
2024-03-12T19:07:11.165Z,31.07
2024-03-12T19:12:16.183Z,30.00
2024-03-12T19:17:18.576Z,29.07
2024-03-12T19:22:21.370Z,30.37
2024-03-12T19:27:30.914Z,35.95
2024-03-12T19:32:39.563Z,31.00
2024-03-12T19:37:43.299Z,32.27
2024-03-12T19:42:50.086Z,33.97
2024-03-12T19:47:52.576Z,30.10
2024-03-12T19:52:56.363Z,32.13
2024-03-12T19:58:02.514Z,32.50
2024-03-12T20:03:07.456Z,30.97
2024-03-12T20:08:12.083Z,31.43
2024-03-12T20:13:14.609Z,31.87
2024-03-12T20:18:16.613Z,32.07
2024-03-12T20:23:18.401Z,30.00
2024-03-12T20:28:20.151Z,31.77
2024-03-12T20:33:23.286Z,30.83
2024-03-12T20:38:25.493Z,32.37
2024-03-12T20:43:28.683Z,30.53
2024-03-12T20:48:30.576Z,30.87
2024-03-12T20:53:34.944Z,37.33
2024-03-12T20:58:39.517Z,47.33
2024-03-12T21:03:49.820Z,49.30
2024-03-12T21:08:52.254Z,39.30
2024-03-12T21:13:59.104Z,35.40
2024-03-12T21:19:01.244Z,32.70
2024-03-12T21:24:05.435Z,33.00
2024-03-12T21:29:09.740Z,34.80
2024-03-12T21:34:14.060Z,36.23
2024-03-12T21:39:23.329Z,35.17
2024-03-12T21:44:28.761Z,36.30
2024-03-12T21:49:33.330Z,36.80
2024-03-12T21:54:37.388Z,34.70
2024-03-12T21:59:40.724Z,34.40
2024-03-12T22:04:42.434Z,36.03
2024-03-12T22:09:48.163Z,37.83
2024-03-12T22:14:52.169Z,37.53
2024-03-12T22:19:55.056Z,36.43
2024-03-12T22:24:59.226Z,39.47
2024-03-12T22:30:07.804Z,38.07
2024-03-12T22:35:09.857Z,38.87
2024-03-12T22:40:14.476Z,39.40
2024-03-12T22:45:16.605Z,38.80
2024-03-12T22:50:18.801Z,42.63
2024-03-12T22:55:21.818Z,40.17
2024-03-12T23:00:29.992Z,42.17
2024-03-12T23:05:36.175Z,40.90
2024-03-12T23:10:45.243Z,42.10
2024-03-12T23:15:50.300Z,45.07
2024-03-12T23:20:53.851Z,43.93
2024-03-12T23:25:55.745Z,43.87
2024-03-12T23:31:00.969Z,44.20
2024-03-12T23:36:03.106Z,44.80
2024-03-12T23:41:04.839Z,43.60
2024-03-12T23:46:09.656Z,46.20
2024-03-12T23:51:15.119Z,48.33
2024-03-12T23:56:16.973Z,48.53
